createdAt,value
2018-12-11T00:01:58.975Z,3.83
2018-12-11T00:04:27.916Z,4.67
2018-12-11T00:06:56.738Z,4.77
2018-12-11T00:09:25.917Z,4.20
2018-12-11T00:11:54.903Z,5.97
2018-12-11T00:14:24.125Z,7.17
2018-12-11T00:16:53.097Z,4.90
2018-12-11T00:19:22.498Z,5.30
2018-12-11T00:21:51.328Z,6.30
2018-12-11T00:24:20.305Z,6.30
2018-12-11T00:26:49.253Z,4.80
2018-12-11T00:29:18.152Z,4.23
2018-12-11T00:31:47.111Z,5.50
2018-12-11T00:34:16.116Z,3.30
2018-12-11T00:36:45.487Z,5.13
2018-12-11T00:39:14.406Z,4.73
2018-12-11T00:41:43.320Z,3.13
2018-12-11T00:44:12.165Z,4.53
2018-12-11T00:46:41.101Z,3.77
2018-12-11T00:49:10.293Z,4.47
2018-12-11T00:51:39.199Z,4.13
2018-12-11T00:54:08.052Z,4.80
2018-12-11T00:56:36.964Z,2.90
2018-12-11T00:59:05.978Z,3.53
2018-12-11T01:01:35.149Z,6.30
2018-12-11T01:04:03.961Z,5.80
2018-12-11T01:06:32.775Z,4.70
2018-12-11T01:09:01.672Z,3.50
2018-12-11T01:11:30.727Z,3.80
2018-12-11T01:13:59.648Z,3.73
2018-12-11T01:16:28.573Z,3.50
2018-12-11T01:18:57.501Z,5.17
2018-12-11T01:21:26.360Z,3.30
2018-12-11T01:23:55.621Z,5.80
2018-12-11T01:26:24.571Z,4.47
2018-12-11T01:28:53.460Z,5.93
2018-12-11T01:31:22.300Z,3.13
2018-12-11T01:33:51.195Z,3.63
2018-12-11T01:36:20.065Z,3.63
2018-12-11T01:38:48.977Z,6.17
2018-12-11T01:41:17.899Z,5.03
2018-12-11T01:43:46.872Z,2.73
2018-12-11T01:46:15.857Z,3.50
2018-12-11T01:48:44.794Z,3.00
2018-12-11T01:51:13.714Z,3.07
2018-12-11T01:53:42.651Z,3.73
2018-12-11T01:56:11.673Z,2.87
2018-12-11T01:58:40.561Z,3.17
2018-12-11T02:01:09.366Z,3.30
2018-12-11T02:03:38.245Z,5.60
2018-12-11T02:06:07.034Z,3.77
2018-12-11T02:08:36.012Z,3.27
2018-12-11T02:11:04.840Z,2.80
2018-12-11T02:13:33.758Z,5.43
2018-12-11T02:16:02.682Z,3.33
2018-12-11T02:18:31.617Z,4.33
2018-12-11T02:21:00.556Z,2.50
2018-12-11T02:23:29.371Z,3.70
2018-12-11T02:25:58.209Z,3.17
2018-12-11T02:28:27.121Z,4.33
2018-12-11T02:30:56.022Z,7.17
2018-12-11T02:33:27.128Z,3.63
2018-12-11T02:35:56.127Z,3.80
2018-12-11T02:38:25.191Z,4.97
2018-12-11T02:40:54.106Z,8.43
2018-12-11T02:43:23.128Z,3.00
2018-12-11T02:45:52.048Z,3.70
2018-12-11T02:48:21.043Z,4.73
2018-12-11T02:50:49.989Z,3.93
2018-12-11T02:53:19.097Z,4.63
2018-12-11T02:55:47.998Z,2.80
2018-12-11T02:58:16.927Z,3.20
2018-12-11T03:00:45.850Z,3.53
2018-12-11T03:03:14.865Z,3.37
2018-12-11T03:05:43.785Z,3.13
2018-12-11T03:08:12.807Z,2.93
2018-12-11T03:10:41.818Z,3.10
2018-12-11T03:13:10.740Z,3.20
2018-12-11T03:15:39.637Z,4.93
2018-12-11T03:18:08.546Z,2.90
2018-12-11T03:20:37.456Z,2.33
2018-12-11T03:23:06.373Z,4.73
2018-12-11T03:25:35.283Z,4.83
2018-12-11T03:28:04.204Z,2.93
2018-12-11T03:30:33.007Z,3.70
2018-12-11T03:33:01.994Z,6.17
2018-12-11T03:35:31.383Z,3.47
2018-12-11T03:38:00.297Z,5.00
2018-12-11T03:40:29.248Z,2.80
2018-12-11T03:42:58.204Z,3.20
2018-12-11T03:45:27.013Z,3.70
2018-12-11T03:47:55.911Z,4.17
2018-12-11T03:50:24.838Z,3.00
2018-12-11T03:52:53.826Z,5.33
2018-12-11T03:55:22.826Z,3.53
2018-12-11T03:57:51.839Z,5.90
2018-12-11T04:00:20.756Z,3.60
2018-12-11T04:02:49.766Z,2.57
2018-12-11T04:05:18.689Z,4.20
2018-12-11T04:07:47.584Z,3.83
2018-12-11T04:10:17.020Z,4.13
2018-12-11T04:12:46.280Z,3.67
2018-12-11T04:15:15.199Z,2.90
2018-12-11T04:17:44.186Z,3.53
2018-12-11T04:20:13.393Z,3.97
2018-12-11T04:22:42.388Z,2.77
2018-12-11T04:25:11.429Z,3.40
2018-12-11T04:27:40.768Z,3.63
2018-12-11T04:30:09.824Z,3.27
2018-12-11T04:32:38.841Z,4.00
2018-12-11T04:35:07.917Z,5.83
2018-12-11T04:37:36.820Z,5.00
2018-12-11T04:40:06.142Z,4.67
2018-12-11T04:42:35.215Z,4.33
2018-12-11T04:45:04.461Z,5.23
2018-12-11T04:47:33.341Z,5.03
2018-12-11T04:50:02.314Z,6.73
2018-12-11T04:52:31.229Z,5.47
2018-12-11T04:55:00.174Z,6.37
2018-12-11T04:57:29.361Z,4.07
2018-12-11T04:59:58.300Z,4.30
2018-12-11T05:02:27.108Z,5.33
2018-12-11T05:04:56.493Z,5.33
2018-12-11T05:07:25.633Z,4.73
2018-12-11T05:09:54.540Z,6.40
2018-12-11T05:12:23.330Z,3.93
2018-12-11T05:14:52.274Z,6.33
2018-12-11T05:17:21.170Z,5.87
2018-12-11T05:19:50.129Z,4.10
2018-12-11T05:22:19.044Z,7.33
2018-12-11T05:24:47.961Z,5.90
2018-12-11T05:27:16.757Z,8.40
2018-12-11T05:29:45.787Z,5.63
2018-12-11T05:32:14.715Z,8.53
2018-12-11T05:34:43.633Z,8.83
2018-12-11T05:37:12.771Z,8.13
2018-12-11T05:39:41.737Z,6.37
2018-12-11T05:42:10.737Z,4.87
2018-12-11T05:44:39.566Z,4.60
2018-12-11T05:47:08.533Z,7.17
2018-12-11T05:49:37.326Z,5.00
2018-12-11T05:52:06.157Z,5.80
2018-12-11T05:54:35.384Z,6.13
2018-12-11T05:57:04.306Z,5.83
2018-12-11T05:59:33.190Z,6.03
2018-12-11T06:02:02.137Z,5.07
2018-12-11T06:04:31.133Z,4.17
2018-12-11T06:07:00.080Z,7.60
2018-12-11T06:09:29.036Z,6.17
2018-12-11T06:11:57.860Z,4.83
2018-12-11T06:14:26.764Z,7.43
2018-12-11T06:16:55.597Z,5.47
2018-12-11T06:19:24.545Z,8.63
2018-12-11T06:21:53.558Z,6.50
2018-12-11T06:24:22.670Z,5.90
2018-12-11T06:26:52.077Z,5.83
2018-12-11T06:29:21.100Z,9.93
2018-12-11T06:31:50.060Z,7.57
2018-12-11T06:34:19.133Z,14.77
2018-12-11T06:36:47.960Z,7.53
2018-12-11T06:39:16.817Z,6.60
2018-12-11T06:41:45.760Z,6.90
2018-12-11T06:44:14.604Z,6.97
2018-12-11T06:46:43.416Z,4.90
2018-12-11T06:49:12.305Z,13.60
2018-12-11T06:51:41.136Z,7.83
2018-12-11T06:54:09.956Z,9.90
2018-12-11T06:56:39.299Z,7.97
2018-12-11T06:59:08.129Z,6.27
2018-12-11T07:01:37.065Z,9.20
2018-12-11T07:04:05.947Z,5.67
2018-12-11T07:06:34.765Z,6.27
2018-12-11T07:09:05.561Z,10.37
2018-12-11T07:11:34.519Z,8.13
2018-12-11T07:14:03.405Z,6.10
2018-12-11T07:16:32.312Z,9.10
2018-12-11T07:19:01.246Z,5.53
2018-12-11T07:21:30.369Z,4.53
2018-12-11T07:23:59.164Z,4.50
2018-12-11T07:26:28.108Z,6.37
2018-12-11T07:28:56.955Z,6.10
2018-12-11T07:31:25.918Z,4.90
2018-12-11T07:33:55.143Z,7.30
2018-12-11T07:36:24.345Z,4.03
2018-12-11T07:38:53.290Z,4.63
2018-12-11T07:41:22.121Z,4.83
2018-12-11T07:43:50.968Z,6.17
2018-12-11T07:46:20.004Z,5.40
2018-12-11T07:48:48.849Z,8.30
2018-12-11T07:51:17.677Z,6.60
2018-12-11T07:53:46.522Z,4.53
2018-12-11T07:56:15.486Z,6.47
2018-12-11T07:58:44.430Z,3.63
2018-12-11T08:01:13.399Z,3.93
2018-12-11T08:03:42.244Z,6.13
2018-12-11T08:06:11.161Z,3.97
2018-12-11T08:08:40.108Z,5.27
2018-12-11T08:11:09.029Z,4.93
2018-12-11T08:13:37.963Z,4.63
2018-12-11T08:16:06.776Z,4.97
2018-12-11T08:18:35.776Z,5.23
2018-12-11T08:21:04.601Z,4.87
2018-12-11T08:23:33.524Z,4.30
2018-12-11T08:26:02.490Z,4.73
2018-12-11T08:28:31.523Z,7.53
2018-12-11T08:31:00.539Z,6.13
2018-12-11T08:33:29.541Z,6.23
2018-12-11T08:35:58.341Z,6.50
2018-12-11T08:38:27.362Z,5.03
2018-12-11T08:40:56.289Z,5.40
2018-12-11T08:43:25.226Z,6.10
2018-12-11T08:45:54.148Z,5.83
2018-12-11T08:48:23.166Z,6.93
2018-12-11T08:50:52.253Z,4.37
2018-12-11T08:53:21.241Z,8.57
2018-12-11T08:55:50.169Z,6.50
2018-12-11T08:58:19.098Z,6.33
2018-12-11T09:00:48.071Z,6.87
2018-12-11T09:03:16.910Z,4.27
2018-12-11T09:05:46.010Z,3.47
2018-12-11T09:08:15.503Z,6.13
2018-12-11T09:10:44.380Z,4.10
2018-12-11T09:13:13.381Z,6.83
2018-12-11T09:15:42.409Z,4.63
2018-12-11T09:18:11.209Z,4.07
2018-12-11T09:20:40.025Z,4.30
2018-12-11T09:23:08.928Z,4.03
2018-12-11T09:25:38.046Z,4.40
2018-12-11T09:28:10.989Z,6.50
2018-12-11T09:30:38.061Z,5.43
2018-12-11T09:33:07.040Z,4.47
2018-12-11T09:35:36.137Z,6.30
2018-12-11T09:38:05.005Z,8.37
2018-12-11T09:40:33.924Z,6.73
2018-12-11T09:43:02.924Z,5.57
2018-12-11T09:45:31.864Z,6.60
2018-12-11T09:48:00.863Z,8.17
2018-12-11T09:50:29.841Z,11.57
2018-12-11T09:52:58.766Z,9.43
2018-12-11T09:55:27.669Z,7.87
2018-12-11T09:57:56.544Z,16.90
2018-12-11T10:00:27.365Z,13.53
2018-12-11T10:02:56.585Z,13.57
2018-12-11T10:05:25.658Z,8.20
2018-12-11T10:07:54.597Z,7.07
2018-12-11T10:10:23.516Z,5.07
2018-12-11T10:12:52.429Z,13.20
2018-12-11T10:15:21.279Z,9.63
2018-12-11T10:17:50.296Z,7.53
2018-12-11T10:20:19.521Z,7.57
2018-12-11T10:22:48.589Z,7.57
2018-12-11T10:25:17.529Z,4.07
2018-12-11T10:27:46.466Z,7.93
2018-12-11T10:30:15.293Z,6.27
2018-12-11T10:32:49.641Z,5.73
2018-12-11T10:35:18.581Z,6.30
2018-12-11T10:37:47.619Z,8.40
2018-12-11T10:40:16.496Z,6.30
2018-12-11T10:42:45.292Z,5.57
2018-12-11T10:45:14.981Z,5.27
2018-12-11T10:47:43.865Z,6.60
2018-12-11T10:50:12.796Z,9.23
2018-12-11T10:52:42.209Z,5.43
2018-12-11T10:55:11.117Z,6.00
2018-12-11T10:57:40.230Z,5.87
2018-12-11T11:00:13.889Z,5.87
2018-12-11T11:02:48.390Z,6.83
2018-12-11T11:05:17.365Z,5.63
2018-12-11T11:07:46.598Z,7.03
2018-12-11T11:10:15.541Z,6.80
2018-12-11T11:12:44.836Z,5.70
2018-12-11T11:15:13.876Z,6.43
2018-12-11T11:17:42.891Z,3.57
2018-12-11T11:20:11.960Z,3.73
2018-12-11T11:22:40.868Z,4.83
2018-12-11T11:25:09.926Z,4.80
2018-12-11T11:27:38.902Z,3.40
2018-12-11T11:30:07.998Z,5.40
2018-12-11T11:32:37.021Z,4.53
2018-12-11T11:35:06.741Z,4.37
2018-12-11T11:37:35.684Z,4.23
2018-12-11T11:40:05.446Z,5.13
2018-12-11T11:42:34.549Z,4.30
2018-12-11T11:45:04.230Z,4.43
2018-12-11T11:47:33.345Z,6.27
2018-12-11T11:50:02.338Z,4.40
2018-12-11T11:52:31.429Z,5.50
2018-12-11T11:55:00.330Z,4.30
2018-12-11T11:57:29.770Z,4.90
2018-12-11T11:59:58.993Z,3.90
2018-12-11T12:02:33.330Z,4.00
2018-12-11T12:04:59.065Z,5.40
2018-12-11T12:07:27.958Z,7.47
2018-12-11T12:09:56.886Z,5.40
2018-12-11T12:12:25.836Z,7.67
2018-12-11T12:14:54.749Z,7.53
2018-12-11T12:17:23.585Z,3.87
2018-12-11T12:19:52.534Z,5.97
2018-12-11T12:22:21.511Z,4.43
2018-12-11T12:24:50.685Z,5.27
2018-12-11T12:27:19.584Z,5.07
2018-12-11T12:29:48.648Z,3.60
2018-12-11T12:32:17.573Z,4.53
2018-12-11T12:34:46.477Z,5.83
2018-12-11T12:37:15.549Z,5.13
2018-12-11T12:39:44.452Z,5.43
2018-12-11T12:42:13.421Z,6.47
2018-12-11T12:44:42.737Z,4.40
2018-12-11T12:47:11.720Z,4.93
2018-12-11T12:49:40.658Z,5.57
2018-12-11T12:52:09.644Z,10.03
2018-12-11T12:54:38.643Z,6.10
2018-12-11T12:57:07.537Z,7.00
2018-12-11T12:59:36.599Z,7.83
2018-12-11T13:02:05.505Z,7.37
2018-12-11T13:04:34.417Z,7.63
2018-12-11T13:07:03.353Z,4.87
2018-12-11T13:09:32.217Z,7.23
2018-12-11T13:12:01.448Z,4.83
2018-12-11T13:14:30.566Z,5.83
2018-12-11T13:16:59.619Z,8.37
2018-12-11T13:19:28.498Z,5.67
2018-12-11T13:21:57.409Z,5.97
2018-12-11T13:24:26.370Z,6.10
2018-12-11T13:26:55.489Z,5.70
2018-12-11T13:29:24.399Z,4.47
2018-12-11T13:31:53.687Z,7.70
2018-12-11T13:34:22.741Z,11.20
2018-12-11T13:36:52.435Z,9.27
2018-12-11T13:39:21.369Z,9.07
2018-12-11T13:41:50.257Z,9.67
2018-12-11T13:44:19.489Z,5.97
2018-12-11T13:46:48.584Z,6.73
2018-12-11T13:49:17.588Z,10.33
2018-12-11T13:51:46.677Z,9.30
2018-12-11T13:54:15.998Z,6.47
2018-12-11T13:56:45.345Z,9.00
2018-12-11T13:59:14.365Z,7.47
2018-12-11T14:01:43.925Z,10.50
2018-12-11T14:04:13.066Z,9.97
2018-12-11T14:06:42.772Z,16.07
2018-12-11T14:09:17.242Z,6.70
2018-12-11T14:11:46.563Z,10.93
2018-12-11T14:14:15.845Z,9.43
2018-12-11T14:16:45.212Z,9.40
2018-12-11T14:19:14.233Z,7.27
2018-12-11T14:21:43.046Z,9.60
2018-12-11T14:24:12.062Z,10.80
2018-12-11T14:26:41.250Z,11.40
2018-12-11T14:29:10.381Z,9.00
2018-12-11T14:31:39.598Z,8.47
2018-12-11T14:34:08.706Z,12.00
2018-12-11T14:36:37.634Z,11.77
2018-12-11T14:39:07.857Z,9.53
2018-12-11T14:41:36.785Z,8.87
2018-12-11T14:44:05.698Z,9.57
2018-12-11T14:46:34.772Z,12.33
2018-12-11T14:49:04.261Z,10.47
2018-12-11T14:51:33.347Z,11.73
2018-12-11T14:54:03.085Z,11.23
2018-12-11T14:56:32.188Z,15.10
2018-12-11T14:59:01.422Z,13.17
2018-12-11T15:01:31.161Z,8.93
2018-12-11T15:04:00.194Z,12.30
2018-12-11T15:06:29.034Z,9.20
2018-12-11T15:09:02.685Z,10.13
2018-12-11T15:11:31.922Z,10.70
2018-12-11T15:14:01.410Z,12.23
2018-12-11T15:16:30.966Z,13.57
2018-12-11T15:19:02.870Z,11.77
2018-12-11T15:21:32.165Z,11.23
2018-12-11T15:24:01.313Z,12.00
2018-12-11T15:26:30.350Z,11.83
2018-12-11T15:28:59.258Z,13.40
2018-12-11T15:31:28.179Z,16.57
2018-12-11T15:33:57.082Z,8.93
2018-12-11T15:36:27.148Z,9.70
2018-12-11T15:38:56.756Z,8.60
2018-12-11T15:41:25.732Z,11.07
2018-12-11T15:43:54.743Z,8.83
2018-12-11T15:46:24.125Z,11.57
2018-12-11T15:48:53.220Z,10.03
2018-12-11T15:51:22.178Z,9.27
2018-12-11T15:53:51.472Z,9.70
2018-12-11T15:56:20.480Z,7.47
2018-12-11T15:58:49.415Z,7.27
2018-12-11T16:01:18.312Z,8.80
2018-12-11T16:03:47.385Z,13.70
2018-12-11T16:06:16.390Z,10.63
2018-12-11T16:08:45.675Z,12.97
2018-12-11T16:11:14.667Z,10.23
2018-12-11T16:13:43.605Z,10.17
2018-12-11T16:16:12.617Z,9.67
2018-12-11T16:18:41.760Z,10.77
2018-12-11T16:21:10.981Z,9.37
2018-12-11T16:23:39.925Z,9.77
2018-12-11T16:26:08.961Z,11.10
2018-12-11T16:28:37.868Z,9.20
2018-12-11T16:31:06.760Z,10.07
2018-12-11T16:33:35.756Z,9.10
2018-12-11T16:36:04.903Z,8.77
2018-12-11T16:38:33.915Z,11.97
2018-12-11T16:41:03.164Z,11.57
2018-12-11T16:43:32.170Z,11.67
2018-12-11T16:46:01.083Z,10.43
2018-12-11T16:48:29.987Z,10.07
2018-12-11T16:50:59.092Z,8.63
2018-12-11T16:53:28.113Z,10.70
2018-12-11T16:55:57.604Z,11.50
2018-12-11T16:58:28.229Z,10.50
2018-12-11T17:00:58.284Z,9.83
2018-12-11T17:03:27.653Z,10.80
2018-12-11T17:05:57.047Z,9.97
2018-12-11T17:08:26.478Z,9.47
2018-12-11T17:10:56.223Z,9.87
2018-12-11T17:13:25.356Z,11.20
2018-12-11T17:15:54.178Z,12.37
2018-12-11T17:18:22.977Z,8.73
2018-12-11T17:20:52.441Z,7.63
2018-12-11T17:23:21.548Z,10.47
2018-12-11T17:25:50.565Z,7.87
2018-12-11T17:28:19.477Z,9.30
2018-12-11T17:30:48.393Z,8.87
2018-12-11T17:33:17.400Z,10.50
2018-12-11T17:35:46.405Z,10.10
2018-12-11T17:38:15.421Z,9.33
2018-12-11T17:40:44.377Z,9.57
2018-12-11T17:43:13.566Z,10.47
2018-12-11T17:45:42.619Z,9.50
2018-12-11T17:48:12.318Z,7.97
2018-12-11T17:50:41.573Z,9.50
2018-12-11T17:53:10.764Z,9.33
2018-12-11T17:55:39.600Z,8.53
2018-12-11T17:58:08.541Z,10.23
2018-12-11T18:00:38.003Z,10.53
2018-12-11T18:03:06.913Z,11.23
2018-12-11T18:05:35.846Z,11.83
2018-12-11T18:08:05.284Z,12.10
2018-12-11T18:10:34.192Z,12.97
2018-12-11T18:13:03.571Z,11.47
2018-12-11T18:15:32.887Z,12.07
2018-12-11T18:18:02.102Z,10.00
2018-12-11T18:20:31.214Z,10.33
2018-12-11T18:23:00.018Z,11.47
2018-12-11T18:25:29.043Z,9.27
2018-12-11T18:27:57.938Z,8.83
2018-12-11T18:30:26.866Z,12.40
2018-12-11T18:32:55.774Z,9.70
2018-12-11T18:35:25.031Z,10.93
2018-12-11T18:37:53.956Z,10.27
2018-12-11T18:40:23.586Z,10.03
2018-12-11T18:42:52.412Z,9.53
2018-12-11T18:45:21.237Z,10.70
2018-12-11T18:47:50.457Z,10.37
2018-12-11T18:50:21.560Z,9.87
2018-12-11T18:52:50.285Z,7.60
2018-12-11T18:55:19.204Z,8.80
2018-12-11T18:57:48.107Z,9.40
2018-12-11T19:00:17.244Z,7.67
2018-12-11T19:02:46.353Z,6.67
2018-12-11T19:05:15.573Z,7.80
2018-12-11T19:07:44.469Z,6.03
2018-12-11T19:10:13.396Z,7.67
2018-12-11T19:12:42.301Z,6.53
2018-12-11T19:15:11.392Z,8.43
2018-12-11T19:17:40.500Z,9.00
2018-12-11T19:20:09.687Z,9.90
2018-12-11T19:22:38.798Z,8.90
2018-12-11T19:25:12.012Z,10.43
2018-12-11T19:27:40.906Z,9.33
2018-12-11T19:30:09.993Z,6.00
2018-12-11T19:32:38.950Z,9.67
2018-12-11T19:35:08.047Z,5.90
2018-12-11T19:37:37.240Z,8.10
2018-12-11T19:40:08.577Z,8.07
2018-12-11T19:42:38.791Z,8.03
2018-12-11T19:45:07.847Z,6.40
2018-12-11T19:47:36.857Z,8.77
2018-12-11T19:50:06.453Z,8.03
2018-12-11T19:52:39.677Z,7.57
2018-12-11T19:55:06.589Z,9.17
2018-12-11T19:57:35.584Z,7.30
2018-12-11T20:00:05.821Z,6.10
2018-12-11T20:02:34.704Z,7.17
2018-12-11T20:05:04.282Z,7.70
2018-12-11T20:07:34.120Z,6.50
2018-12-11T20:10:24.638Z,7.67
2018-12-11T20:12:53.641Z,6.10
2018-12-11T20:15:22.666Z,11.13
2018-12-11T20:17:51.706Z,6.13
2018-12-11T20:20:26.644Z,5.23
2018-12-11T20:22:55.549Z,5.77
2018-12-11T20:25:24.626Z,6.67
2018-12-11T20:27:53.567Z,7.93
2018-12-11T20:30:22.485Z,9.23
2018-12-11T20:32:52.014Z,7.13
2018-12-11T20:35:20.942Z,8.83
2018-12-11T20:37:50.075Z,8.17
2018-12-11T20:40:20.310Z,6.73
2018-12-11T20:42:49.362Z,7.50
2018-12-11T20:45:19.318Z,6.70
2018-12-11T20:47:48.351Z,5.67
2018-12-11T20:50:17.544Z,4.87
2018-12-11T20:52:47.076Z,5.17
2018-12-11T20:55:16.025Z,6.03
2018-12-11T20:57:45.178Z,5.97
2018-12-11T21:00:14.235Z,6.43
2018-12-11T21:02:45.253Z,6.07
2018-12-11T21:05:14.363Z,7.37
2018-12-11T21:07:43.557Z,5.47
2018-12-11T21:10:12.678Z,5.93
2018-12-11T21:12:41.490Z,6.00
2018-12-11T21:15:10.522Z,7.23
2018-12-11T21:17:39.583Z,7.00
2018-12-11T21:20:09.326Z,6.53
2018-12-11T21:22:38.578Z,6.77
2018-12-11T21:25:07.549Z,7.23
2018-12-11T21:27:36.744Z,8.70
2018-12-11T21:30:07.645Z,5.70
2018-12-11T21:32:36.541Z,6.87
2018-12-11T21:35:07.386Z,5.83
2018-12-11T21:37:36.323Z,7.47
2018-12-11T21:40:06.613Z,7.40
2018-12-11T21:42:35.617Z,8.17
2018-12-11T21:45:05.774Z,7.27
2018-12-11T21:47:34.689Z,6.07
2018-12-11T21:50:05.201Z,5.00
2018-12-11T21:52:34.301Z,9.00
2018-12-11T21:55:03.601Z,7.53
2018-12-11T21:57:33.937Z,10.73
2018-12-11T22:00:03.942Z,7.73
2018-12-11T22:02:33.080Z,8.03
2018-12-11T22:05:02.003Z,5.83
2018-12-11T22:07:30.985Z,5.77
2018-12-11T22:09:59.979Z,5.83
2018-12-11T22:12:29.241Z,8.83
2018-12-11T22:14:58.145Z,6.40
2018-12-11T22:17:26.981Z,5.87
2018-12-11T22:19:56.530Z,6.47
2018-12-11T22:22:25.527Z,5.87
2018-12-11T22:24:58.663Z,7.23
2018-12-11T22:27:32.597Z,6.03
2018-12-11T22:30:05.742Z,5.53
2018-12-11T22:32:40.235Z,4.40
2018-12-11T22:35:17.011Z,6.23
2018-12-11T22:38:24.374Z,6.13
2018-12-11T22:40:59.662Z,4.57
2018-12-11T22:43:34.774Z,5.07
2018-12-11T22:46:04.033Z,5.43
2018-12-11T22:48:33.209Z,6.23
2018-12-11T22:51:06.903Z,4.73
2018-12-11T22:53:37.315Z,6.20
2018-12-11T22:56:06.393Z,6.53
2018-12-11T22:58:35.395Z,4.57
2018-12-11T23:01:04.481Z,5.10
2018-12-11T23:03:33.732Z,5.97
2018-12-11T23:06:02.809Z,6.17
2018-12-11T23:08:31.725Z,5.77
2018-12-11T23:11:00.622Z,9.20
2018-12-11T23:13:29.507Z,5.93
2018-12-11T23:15:58.487Z,6.23
2018-12-11T23:18:27.932Z,5.70
2018-12-11T23:20:56.840Z,4.17
2018-12-11T23:23:25.956Z,3.77
2018-12-11T23:25:55.037Z,4.30
2018-12-11T23:28:23.966Z,5.53
2018-12-11T23:30:52.997Z,5.87
2018-12-11T23:33:21.784Z,4.47
2018-12-11T23:35:50.672Z,5.73
2018-12-11T23:38:19.560Z,7.17
2018-12-11T23:40:48.373Z,5.30
2018-12-11T23:43:17.369Z,5.50
2018-12-11T23:45:46.306Z,5.57
2018-12-11T23:48:15.217Z,6.90
2018-12-11T23:50:44.118Z,6.40
2018-12-11T23:53:13.000Z,6.23
2018-12-11T23:55:41.778Z,6.00
2018-12-11T23:58:10.617Z,5.00
